createdAt,value
2023-03-24T00:02:48.777Z,12.95
2023-03-24T00:05:36.857Z,13.02
2023-03-24T00:08:25.136Z,13.82
2023-03-24T00:11:14.361Z,18.88
2023-03-24T00:14:02.939Z,23.15
2023-03-24T00:16:50.825Z,19.98
2023-03-24T00:19:39.677Z,19.92
2023-03-24T00:22:28.543Z,23.00
2023-03-24T00:25:17.101Z,27.98
2023-03-24T00:28:06.627Z,25.48
2023-03-24T00:30:55.045Z,22.55
2023-03-24T00:33:43.981Z,22.13
2023-03-24T00:36:33.001Z,19.52
2023-03-24T00:39:21.414Z,22.58
2023-03-24T00:42:09.186Z,17.98
2023-03-24T00:44:56.972Z,18.35
2023-03-24T00:47:45.587Z,13.65
2023-03-24T00:50:33.647Z,12.80
2023-03-24T00:53:26.050Z,15.30
2023-03-24T00:56:15.766Z,10.43
2023-03-24T00:59:03.722Z,10.88
2023-03-24T01:01:51.619Z,7.68
2023-03-24T01:04:39.618Z,8.30
2023-03-24T01:07:30.242Z,7.68
2023-03-24T01:10:26.290Z,8.63
2023-03-24T01:13:14.171Z,7.90
2023-03-24T01:16:01.979Z,8.27
2023-03-24T01:18:49.722Z,8.73
2023-03-24T01:21:37.429Z,7.32
2023-03-24T01:24:26.272Z,7.13
2023-03-24T01:27:15.784Z,8.60
2023-03-24T01:30:04.488Z,8.07
2023-03-24T01:32:53.323Z,7.60
2023-03-24T01:35:41.411Z,8.93
2023-03-24T01:38:29.673Z,9.25
2023-03-24T01:41:17.124Z,9.18
2023-03-24T01:44:29.168Z,7.63
2023-03-24T01:47:17.359Z,9.30
2023-03-24T01:50:05.448Z,12.00
2023-03-24T01:52:53.848Z,13.35
2023-03-24T01:55:43.481Z,11.48
2023-03-24T01:58:34.430Z,11.05
2023-03-24T02:01:46.943Z,11.35
2023-03-24T02:04:56.172Z,13.18
2023-03-24T02:07:53.577Z,10.93
2023-03-24T02:10:41.289Z,13.27
2023-03-24T02:13:29.180Z,13.45
2023-03-24T02:16:27.681Z,11.27
2023-03-24T02:19:54.702Z,10.77
2023-03-24T02:23:17.336Z,11.60
2023-03-24T02:26:39.687Z,12.13
2023-03-24T02:29:59.083Z,12.45
2023-03-24T02:33:34.281Z,16.35
2023-03-24T02:37:07.017Z,13.73
2023-03-24T02:40:12.747Z,14.07
2023-03-24T02:43:20.835Z,12.55
2023-03-24T02:46:19.815Z,13.43
2023-03-24T02:49:18.396Z,14.30
2023-03-24T02:52:09.351Z,13.13
2023-03-24T02:55:08.983Z,12.27
2023-03-24T02:58:03.025Z,14.85
2023-03-24T03:01:12.019Z,13.25
2023-03-24T03:04:07.289Z,14.88
2023-03-24T03:07:00.016Z,16.65
2023-03-24T03:09:52.198Z,16.63
2023-03-24T03:12:43.624Z,15.95
2023-03-24T03:15:36.094Z,13.95
2023-03-24T03:18:29.425Z,16.95
2023-03-24T03:21:20.682Z,15.20
2023-03-24T03:24:13.288Z,16.58
2023-03-24T03:27:06.134Z,17.77
2023-03-24T03:30:00.400Z,13.05
2023-03-24T03:32:54.588Z,14.70
2023-03-24T03:35:49.860Z,14.45
2023-03-24T03:38:47.914Z,15.75
2023-03-24T03:41:35.740Z,14.80
2023-03-24T03:44:23.772Z,15.68
2023-03-24T03:47:13.056Z,17.23
2023-03-24T03:50:04.055Z,10.23
2023-03-24T03:52:53.009Z,11.20
2023-03-24T03:55:41.812Z,12.98
2023-03-24T03:58:29.889Z,11.13
2023-03-24T04:01:22.420Z,10.82
2023-03-24T04:05:03.591Z,7.57
2023-03-24T04:08:19.687Z,8.48
2023-03-24T04:11:33.500Z,7.85
2023-03-24T04:15:18.659Z,7.03
2023-03-24T04:18:42.959Z,6.40
2023-03-24T04:21:51.999Z,7.00
2023-03-24T04:24:50.501Z,6.80
2023-03-24T04:27:46.725Z,7.50
2023-03-24T04:30:43.052Z,5.45
2023-03-24T04:33:42.484Z,6.65
2023-03-24T04:36:42.341Z,6.10
2023-03-24T04:39:58.853Z,6.47
2023-03-24T04:42:52.624Z,5.80
2023-03-24T04:45:50.154Z,6.43
2023-03-24T04:48:55.269Z,9.52
2023-03-24T04:51:55.064Z,7.50
2023-03-24T04:54:48.934Z,7.32
2023-03-24T04:57:38.027Z,8.65
2023-03-24T05:00:27.694Z,7.30
2023-03-24T05:03:17.914Z,8.48
2023-03-24T05:06:07.821Z,6.10
2023-03-24T05:08:59.050Z,6.72
2023-03-24T05:11:50.716Z,7.00
2023-03-24T05:14:41.006Z,4.63
2023-03-24T05:17:29.041Z,8.02
2023-03-24T05:20:16.887Z,8.18
2023-03-24T05:23:08.888Z,6.22
2023-03-24T05:25:56.772Z,7.15
2023-03-24T05:28:45.770Z,7.20
2023-03-24T05:31:34.849Z,5.97
2023-03-24T05:34:30.504Z,5.47
2023-03-24T05:37:27.632Z,4.93
2023-03-24T05:40:16.306Z,4.78
2023-03-24T05:43:24.365Z,5.38
2023-03-24T05:46:22.862Z,5.07
2023-03-24T05:49:15.228Z,4.82
2023-03-24T05:52:03.170Z,3.40
2023-03-24T05:54:52.792Z,4.35
2023-03-24T05:57:44.389Z,5.75
2023-03-24T06:00:49.804Z,7.05
2023-03-24T06:03:49.456Z,5.80
2023-03-24T06:06:39.004Z,6.75
2023-03-24T06:09:28.960Z,4.45
2023-03-24T06:12:17.264Z,5.55
2023-03-24T06:15:20.560Z,4.03
2023-03-24T06:18:09.779Z,4.97
2023-03-24T06:21:00.746Z,6.78
2023-03-24T06:23:52.322Z,4.43
2023-03-24T06:26:50.163Z,5.80
2023-03-24T06:29:38.609Z,4.68
2023-03-24T06:32:27.881Z,4.15
2023-03-24T06:35:16.204Z,5.57
2023-03-24T06:38:09.395Z,5.70
2023-03-24T06:41:03.014Z,5.55
2023-03-24T06:43:51.284Z,5.28
2023-03-24T06:46:40.505Z,5.63
2023-03-24T06:49:28.110Z,6.10
2023-03-24T06:52:16.225Z,4.20
2023-03-24T06:55:03.735Z,5.97
2023-03-24T06:57:53.593Z,5.13
2023-03-24T07:01:03.453Z,4.15
2023-03-24T07:04:00.767Z,5.00
2023-03-24T07:07:28.326Z,5.35
2023-03-24T07:10:32.420Z,5.75
2023-03-24T07:13:21.563Z,4.85
2023-03-24T07:16:10.049Z,7.60
2023-03-24T07:19:26.303Z,4.30
2023-03-24T07:22:39.768Z,6.00
2023-03-24T07:25:46.967Z,4.30
2023-03-24T07:28:41.359Z,3.67
2023-03-24T07:31:29.770Z,6.57
2023-03-24T07:34:22.055Z,6.22
2023-03-24T07:37:10.202Z,6.60
2023-03-24T07:39:57.651Z,5.43
2023-03-24T07:42:47.303Z,6.05
2023-03-24T07:45:45.958Z,5.15
2023-03-24T07:48:34.726Z,5.97
2023-03-24T07:51:22.664Z,7.38
2023-03-24T07:54:30.340Z,4.90
2023-03-24T07:57:18.134Z,7.05
2023-03-24T08:00:15.190Z,6.78
2023-03-24T08:03:15.805Z,7.20
2023-03-24T08:06:12.154Z,5.10
2023-03-24T08:09:04.460Z,6.82
2023-03-24T08:11:52.544Z,4.97
2023-03-24T08:14:40.038Z,8.27
2023-03-24T08:17:27.620Z,5.65
2023-03-24T08:20:16.680Z,6.60
2023-03-24T08:23:05.010Z,5.80
2023-03-24T08:25:53.273Z,6.00
2023-03-24T08:28:41.660Z,4.55
2023-03-24T08:31:33.566Z,5.97
2023-03-24T08:34:20.986Z,5.70
2023-03-24T08:37:10.132Z,5.40
2023-03-24T08:39:58.915Z,4.47
2023-03-24T08:42:49.777Z,6.90
2023-03-24T08:45:38.297Z,9.07
2023-03-24T08:48:26.184Z,5.57
2023-03-24T08:51:15.061Z,6.50
2023-03-24T08:54:04.739Z,6.60
2023-03-24T08:56:52.395Z,7.95
2023-03-24T08:59:40.268Z,5.30
2023-03-24T09:02:28.069Z,7.53
2023-03-24T09:05:22.666Z,5.43
2023-03-24T09:08:16.542Z,4.38
2023-03-24T09:11:06.273Z,4.22
2023-03-24T09:13:54.168Z,5.93
2023-03-24T09:16:43.993Z,2.78
2023-03-24T09:19:32.147Z,3.05
2023-03-24T09:22:19.643Z,3.35
2023-03-24T09:25:08.953Z,4.43
2023-03-24T09:27:58.570Z,4.45
2023-03-24T09:30:46.301Z,3.28
2023-03-24T09:33:38.342Z,4.43
2023-03-24T09:36:26.109Z,5.78
2023-03-24T09:39:13.892Z,4.35
2023-03-24T09:42:01.424Z,2.83
2023-03-24T09:44:55.100Z,4.25
2023-03-24T09:47:48.640Z,3.33
2023-03-24T09:50:41.451Z,4.10
2023-03-24T09:53:34.762Z,4.03
2023-03-24T09:56:25.858Z,3.45
2023-03-24T09:59:30.898Z,3.55
2023-03-24T10:02:21.855Z,3.50
2023-03-24T10:05:14.921Z,3.10
2023-03-24T10:08:11.298Z,3.17
2023-03-24T10:14:03.162Z,4.55
2023-03-24T10:16:58.552Z,3.33
2023-03-24T10:19:59.322Z,3.30
2023-03-24T10:22:55.717Z,3.13
2023-03-24T10:25:51.393Z,2.38
2023-03-24T10:28:45.973Z,4.90
2023-03-24T10:31:36.011Z,3.00
2023-03-24T10:34:30.921Z,3.58
2023-03-24T10:37:21.190Z,2.28
2023-03-24T10:40:20.775Z,3.45
2023-03-24T10:43:09.903Z,2.50
2023-03-24T10:45:59.925Z,2.63
2023-03-24T10:48:49.915Z,2.65
2023-03-24T10:51:37.826Z,4.50
2023-03-24T10:54:28.913Z,3.67
2023-03-24T10:57:19.600Z,3.17
2023-03-24T11:00:13.214Z,3.63
2023-03-24T11:03:03.693Z,2.65
2023-03-24T11:05:58.945Z,5.03
2023-03-24T11:08:46.780Z,3.33
2023-03-24T11:11:37.032Z,4.95
2023-03-24T11:14:27.247Z,3.60
2023-03-24T11:17:16.424Z,4.53
2023-03-24T11:20:08.498Z,3.20
2023-03-24T11:23:03.127Z,5.13
2023-03-24T11:26:02.862Z,4.50
2023-03-24T11:28:53.866Z,4.68
2023-03-24T11:31:42.536Z,3.03
2023-03-24T11:34:34.402Z,4.88
2023-03-24T11:37:23.591Z,4.60
2023-03-24T11:40:22.344Z,2.40
2023-03-24T11:43:22.095Z,4.10
2023-03-24T11:46:17.199Z,5.18
2023-03-24T11:49:06.663Z,4.38
2023-03-24T11:51:56.499Z,2.95
2023-03-24T11:54:45.372Z,3.28
2023-03-24T11:57:48.284Z,4.15
2023-03-24T12:00:41.272Z,3.50
2023-03-24T12:03:55.906Z,3.65
2023-03-24T12:07:02.772Z,3.92
2023-03-24T12:09:57.570Z,3.50
2023-03-24T12:12:53.065Z,3.28
2023-03-24T12:15:54.666Z,2.90
2023-03-24T12:18:57.121Z,4.80
2023-03-24T12:21:57.939Z,4.40
2023-03-24T12:25:04.201Z,3.80
2023-03-24T12:28:02.060Z,3.40
2023-03-24T12:31:01.067Z,3.25
2023-03-24T12:34:00.055Z,7.55
2023-03-24T12:36:55.472Z,3.95
2023-03-24T12:39:54.218Z,6.90
2023-03-24T12:42:43.543Z,3.70
2023-03-24T12:45:41.300Z,3.08
2023-03-24T12:48:47.570Z,3.78
2023-03-24T12:51:44.834Z,3.95
2023-03-24T12:54:40.674Z,4.25
2023-03-24T12:57:32.421Z,10.00
2023-03-24T13:00:24.445Z,6.50
2023-03-24T13:03:17.522Z,4.47
2023-03-24T13:06:17.432Z,4.63
2023-03-24T13:09:13.275Z,5.93
2023-03-24T13:12:06.849Z,4.03
2023-03-24T13:15:04.787Z,6.05
2023-03-24T13:17:58.481Z,7.85
2023-03-24T13:20:49.279Z,4.65
2023-03-24T13:23:44.922Z,5.13
2023-03-24T13:26:40.072Z,7.10
2023-03-24T13:29:54.004Z,5.40
2023-03-24T13:32:47.395Z,9.57
2023-03-24T13:35:54.324Z,4.28
2023-03-24T13:38:46.277Z,5.25
2023-03-24T13:41:37.796Z,4.07
2023-03-24T13:44:28.690Z,5.53
2023-03-24T13:47:18.876Z,4.70
2023-03-24T13:50:08.278Z,5.20
2023-03-24T13:52:56.671Z,6.22
2023-03-24T13:55:51.234Z,8.70
2023-03-24T13:59:24.750Z,7.30
2023-03-24T14:02:25.151Z,5.20
2023-03-24T14:05:30.402Z,5.28
2023-03-24T14:08:19.216Z,4.90
2023-03-24T14:11:07.595Z,4.05
2023-03-24T14:13:55.352Z,5.40
2023-03-24T14:16:45.914Z,5.80
2023-03-24T14:19:39.540Z,6.47
2023-03-24T14:22:31.676Z,5.57
2023-03-24T14:25:27.178Z,6.82
2023-03-24T14:28:27.656Z,6.57
2023-03-24T14:31:24.695Z,4.90
2023-03-24T14:34:21.016Z,5.13
2023-03-24T14:37:11.227Z,4.70
2023-03-24T14:40:01.020Z,7.40
2023-03-24T14:43:04.629Z,5.18
2023-03-24T14:46:01.634Z,6.18
2023-03-24T14:48:57.409Z,5.50
2023-03-24T14:51:48.403Z,6.57
2023-03-24T14:54:42.378Z,4.28
2023-03-24T14:57:32.814Z,5.32
2023-03-24T15:00:23.864Z,6.78
2023-03-24T15:03:20.353Z,14.10
2023-03-24T15:06:17.128Z,6.80
2023-03-24T15:09:11.964Z,7.57
2023-03-24T15:12:03.326Z,5.80
2023-03-24T15:14:51.956Z,8.13
2023-03-24T15:17:39.886Z,8.00
2023-03-24T15:20:29.350Z,9.57
2023-03-24T15:23:20.037Z,7.18
2023-03-24T15:26:13.682Z,8.70
2023-03-24T15:29:06.909Z,7.18
2023-03-24T15:31:54.728Z,6.32
2023-03-24T15:34:43.687Z,6.78
2023-03-24T15:37:40.104Z,5.57
2023-03-24T15:40:38.668Z,8.43
2023-03-24T15:43:26.892Z,6.57
2023-03-24T15:46:25.381Z,8.00
2023-03-24T15:49:22.791Z,5.60
2023-03-24T15:52:27.304Z,4.68
2023-03-24T15:55:26.290Z,5.05
2023-03-24T15:58:28.120Z,4.15
2023-03-24T16:01:19.037Z,4.43
2023-03-24T16:04:14.344Z,3.45
2023-03-24T16:07:02.385Z,5.45
2023-03-24T16:09:59.223Z,3.50
2023-03-24T16:12:46.820Z,4.00
2023-03-24T16:15:34.611Z,3.63
2023-03-24T16:18:25.212Z,3.15
2023-03-24T16:21:16.250Z,3.15
2023-03-24T16:24:04.098Z,2.75
2023-03-24T16:26:51.796Z,2.95
2023-03-24T16:29:39.548Z,3.22
2023-03-24T16:32:27.085Z,3.13
2023-03-24T16:35:14.814Z,6.93
2023-03-24T16:38:04.121Z,5.72
2023-03-24T16:40:53.521Z,4.20
2023-03-24T16:43:41.970Z,5.13
2023-03-24T16:46:33.604Z,3.08
2023-03-24T16:49:22.455Z,3.78
2023-03-24T16:52:13.248Z,3.15
2023-03-24T16:55:02.485Z,3.45
2023-03-24T16:57:50.015Z,3.50
2023-03-24T17:00:38.375Z,2.75
2023-03-24T17:03:30.023Z,3.67
2023-03-24T17:06:18.929Z,3.55
2023-03-24T17:09:08.489Z,5.35
2023-03-24T17:12:00.705Z,4.07
2023-03-24T17:14:48.184Z,2.42
2023-03-24T17:17:36.130Z,6.00
2023-03-24T17:20:24.943Z,3.35
2023-03-24T17:23:15.279Z,4.30
2023-03-24T17:26:03.419Z,3.13
2023-03-24T17:28:52.872Z,3.17
2023-03-24T17:31:40.253Z,4.80
2023-03-24T17:34:28.058Z,6.10
2023-03-24T17:37:16.065Z,6.93
2023-03-24T17:40:08.108Z,5.32
2023-03-24T17:42:55.839Z,5.00
2023-03-24T17:45:44.858Z,6.38
2023-03-24T17:48:32.879Z,4.82
2023-03-24T17:51:20.641Z,3.83
2023-03-24T17:54:10.424Z,1.95
2023-03-24T17:56:58.071Z,3.95
2023-03-24T17:59:45.953Z,3.35
2023-03-24T18:02:35.305Z,2.92
2023-03-24T18:05:23.235Z,4.15
2023-03-24T18:08:11.072Z,2.78
2023-03-24T18:11:05.136Z,5.15
2023-03-24T18:13:52.888Z,2.60
2023-03-24T18:16:40.739Z,2.72
2023-03-24T18:19:29.760Z,2.03
2023-03-24T18:22:17.578Z,3.38
2023-03-24T18:25:05.371Z,2.00
2023-03-24T18:27:52.721Z,2.20
2023-03-24T18:30:43.657Z,3.25
2023-03-24T18:33:31.667Z,2.83
2023-03-24T18:36:26.448Z,2.05
2023-03-24T18:39:14.831Z,3.05
2023-03-24T18:42:02.039Z,3.35
2023-03-24T18:44:49.775Z,4.90
2023-03-24T18:47:37.642Z,4.60
2023-03-24T18:50:25.038Z,3.35
2023-03-24T18:53:14.582Z,4.63
2023-03-24T18:56:03.654Z,4.57
2023-03-24T18:58:52.398Z,6.22
2023-03-24T19:01:40.420Z,4.47
2023-03-24T19:04:27.890Z,3.63
2023-03-24T19:07:16.420Z,3.45
2023-03-24T19:10:05.835Z,3.08
2023-03-24T19:12:53.580Z,3.47
2023-03-24T19:15:41.574Z,2.05
2023-03-24T19:18:29.206Z,3.05
2023-03-24T19:21:17.945Z,2.83
2023-03-24T19:24:06.221Z,3.60
2023-03-24T19:26:56.393Z,3.78
2023-03-24T19:29:43.938Z,5.43
2023-03-24T19:32:31.613Z,5.88
2023-03-24T19:35:19.627Z,6.57
2023-03-24T19:38:07.261Z,5.00
2023-03-24T19:40:55.193Z,5.78
2023-03-24T19:43:44.409Z,5.88
2023-03-24T19:46:32.288Z,4.93
2023-03-24T19:49:21.492Z,3.38
2023-03-24T19:52:09.440Z,6.35
2023-03-24T19:54:56.793Z,5.10
2023-03-24T19:57:44.450Z,6.30
2023-03-24T20:00:33.432Z,5.78
2023-03-24T20:03:21.805Z,7.25
2023-03-24T20:06:10.405Z,10.00
2023-03-24T20:08:58.216Z,9.75
2023-03-24T20:11:45.780Z,26.08
2023-03-24T20:14:33.602Z,22.35
2023-03-24T20:17:24.856Z,22.85
2023-03-24T20:20:14.499Z,18.23
2023-03-24T20:23:02.304Z,15.73
2023-03-24T20:25:50.660Z,11.73
2023-03-24T20:28:39.175Z,11.95
2023-03-24T20:31:27.968Z,7.60
2023-03-24T20:34:17.635Z,9.00
2023-03-24T20:37:05.357Z,8.18
2023-03-24T20:39:53.588Z,9.27
2023-03-24T20:42:41.418Z,7.97
2023-03-24T20:45:29.367Z,6.10
2023-03-24T20:48:17.383Z,10.07
2023-03-24T20:51:07.228Z,12.50
2023-03-24T20:53:55.168Z,10.20
2023-03-24T20:56:42.852Z,10.98
2023-03-24T20:59:30.626Z,11.95
2023-03-24T21:02:19.211Z,12.15
2023-03-24T21:05:07.840Z,11.25
2023-03-24T21:07:57.942Z,13.60
2023-03-24T21:10:45.946Z,9.82
2023-03-24T21:16:24.405Z,13.65
2023-03-24T21:19:13.130Z,9.88
2023-03-24T21:22:03.263Z,11.38
2023-03-24T21:24:52.939Z,12.40
2023-03-24T21:27:40.441Z,9.25
2023-03-24T21:30:29.070Z,10.60
2023-03-24T21:33:17.058Z,9.45
2023-03-24T21:36:04.848Z,9.65
2023-03-24T21:38:54.036Z,11.05
2023-03-24T21:41:43.274Z,8.60
2023-03-24T21:44:32.169Z,9.88
2023-03-24T21:47:19.897Z,9.70
2023-03-24T21:50:08.604Z,11.70
2023-03-24T21:52:57.257Z,9.40
2023-03-24T21:55:52.097Z,8.98
2023-03-24T21:58:41.551Z,11.70
2023-03-24T22:01:29.291Z,9.20
2023-03-24T22:04:17.651Z,10.48
2023-03-24T22:07:06.685Z,9.73
2023-03-24T22:09:54.423Z,7.68
2023-03-24T22:12:43.127Z,8.05
2023-03-24T22:15:34.277Z,11.07
2023-03-24T22:18:23.326Z,11.88
2023-03-24T22:21:12.652Z,11.40
2023-03-24T22:24:00.279Z,11.52
2023-03-24T22:26:47.773Z,11.52
2023-03-24T22:29:35.196Z,8.55
2023-03-24T22:32:24.081Z,10.50
2023-03-24T22:35:11.910Z,9.10
2023-03-24T22:37:59.384Z,8.98
2023-03-24T22:40:46.729Z,9.82
2023-03-24T22:43:35.285Z,10.88
2023-03-24T22:46:24.550Z,10.88
2023-03-24T22:49:14.107Z,12.00
2023-03-24T22:52:01.948Z,10.85
2023-03-24T22:54:49.255Z,11.02
2023-03-24T22:57:37.062Z,8.43
2023-03-24T23:00:24.890Z,10.95
2023-03-24T23:03:13.048Z,11.82
2023-03-24T23:06:03.477Z,10.80
2023-03-24T23:08:53.648Z,11.85
2023-03-24T23:11:41.197Z,12.25
2023-03-24T23:14:28.516Z,10.07
2023-03-24T23:17:16.189Z,11.02
2023-03-24T23:20:05.764Z,7.47
2023-03-24T23:22:54.944Z,9.63
2023-03-24T23:25:43.872Z,9.93
2023-03-24T23:28:32.500Z,9.93
2023-03-24T23:31:23.043Z,8.70
2023-03-24T23:34:12.700Z,8.90
2023-03-24T23:37:03.657Z,7.25
2023-03-24T23:39:52.283Z,10.68
2023-03-24T23:42:41.157Z,9.00
2023-03-24T23:45:29.161Z,8.82
2023-03-24T23:48:17.680Z,8.55
2023-03-24T23:51:07.415Z,9.77
2023-03-24T23:53:55.039Z,8.50
2023-03-24T23:56:47.152Z,7.40
2023-03-24T23:59:35.391Z,7.07
